sensor_id;sensor_type;location;lat;lon;timestamp;temperature;humidity
53368;DHT22;39271;45.618;20.024;2022-08-30T00:00:16;563.80;2432.00
53368;DHT22;39271;45.618;20.024;2022-08-30T00:03:01;563.80;2432.00
53368;DHT22;39271;45.618;20.024;2022-08-30T00:05:27;563.50;2432.00
53368;DHT22;39271;45.618;20.024;2022-08-30T00:07:53;563.50;2432.00
53368;DHT22;39271;45.618;20.024;2022-08-30T00:10:19;563.50;2432.00
53368;DHT22;39271;45.618;20.024;2022-08-30T00:12:45;563.60;2432.00
53368;DHT22;39271;45.618;20.024;2022-08-30T00:15:12;563.50;2432.00
53368;DHT22;39271;45.618;20.024;2022-08-30T00:17:38;563.40;2432.00
53368;DHT22;39271;45.618;20.024;2022-08-30T00:20:05;563.30;2432.00
53368;DHT22;39271;45.618;20.024;2022-08-30T00:22:32;538.50;2406.40
53368;DHT22;39271;45.618;20.024;2022-08-30T00:24:58;538.50;2406.40
53368;DHT22;39271;45.618;20.024;2022-08-30T00:27:28;538.50;2406.40
53368;DHT22;39271;45.618;20.024;2022-08-30T00:29:54;538.40;2406.40
53368;DHT22;39271;45.618;20.024;2022-08-30T00:32:19;538.40;2406.40
53368;DHT22;39271;45.618;20.024;2022-08-30T00:34:49;538.30;2406.40
53368;DHT22;39271;45.618;20.024;2022-08-30T00:37:15;538.40;2406.40
53368;DHT22;39271;45.618;20.024;2022-08-30T00:39:41;538.40;2406.40
53368;DHT22;39271;45.618;20.024;2022-08-30T00:42:07;538.40;2406.40
53368;DHT22;39271;45.618;20.024;2022-08-30T00:44:33;538.40;2406.40
53368;DHT22;39271;45.618;20.024;2022-08-30T00:46:59;538.50;2406.40
53368;DHT22;39271;45.618;20.024;2022-08-30T00:49:24;538.50;2406.40
53368;DHT22;39271;45.618;20.024;2022-08-30T00:51:50;538.50;2406.40
53368;DHT22;39271;45.618;20.024;2022-08-30T00:54:16;538.50;2406.40
53368;DHT22;39271;45.618;20.024;2022-08-30T00:56:42;538.50;2406.40
53368;DHT22;39271;45.618;20.024;2022-08-30T00:59:08;538.50;2406.40
53368;DHT22;39271;45.618;20.024;2022-08-30T01:01:34;538.40;2406.40
53368;DHT22;39271;45.618;20.024;2022-08-30T01:04:02;538.40;2406.40
53368;DHT22;39271;45.618;20.024;2022-08-30T01:06:28;538.30;2406.40
53368;DHT22;39271;45.618;20.024;2022-08-30T01:08:56;538.10;2406.40
53368;DHT22;39271;45.618;20.024;2022-08-30T01:11:21;538.20;2406.40
53368;DHT22;39271;45.618;20.024;2022-08-30T01:13:48;538.20;2406.40
53368;DHT22;39271;45.618;20.024;2022-08-30T01:16:14;538.20;2406.40
53368;DHT22;39271;45.618;20.024;2022-08-30T01:18:40;538.20;2406.40
53368;DHT22;39271;45.618;20.024;2022-08-30T01:23:37;538.20;2406.40
53368;DHT22;39271;45.618;20.024;2022-08-30T01:26:03;538.20;2406.40
53368;DHT22;39271;45.618;20.024;2022-08-30T01:28:30;538.20;2406.40
53368;DHT22;39271;45.618;20.024;2022-08-30T01:31:02;538.10;2406.40
53368;DHT22;39271;45.618;20.024;2022-08-30T01:33:27;538.10;2406.40
53368;DHT22;39271;45.618;20.024;2022-08-30T01:38:31;538.10;2406.40
53368;DHT22;39271;45.618;20.024;2022-08-30T01:40:58;538.20;2406.40
53368;DHT22;39271;45.618;20.024;2022-08-30T01:43:25;538.00;2406.40
53368;DHT22;39271;45.618;20.024;2022-08-30T01:45:51;537.90;2406.40
53368;DHT22;39271;45.618;20.024;2022-08-30T01:48:16;537.90;2406.40
53368;DHT22;39271;45.618;20.024;2022-08-30T01:50:42;538.00;2406.40
53368;DHT22;39271;45.618;20.024;2022-08-30T01:53:08;538.00;2406.40
53368;DHT22;39271;45.618;20.024;2022-08-30T01:55:33;538.00;2406.40
53368;DHT22;39271;45.618;20.024;2022-08-30T01:57:59;537.90;2406.40
53368;DHT22;39271;45.618;20.024;2022-08-30T02:00:25;538.00;2406.40
53368;DHT22;39271;45.618;20.024;2022-08-30T02:02:50;537.90;2406.40
53368;DHT22;39271;45.618;20.024;2022-08-30T02:05:16;537.90;2406.40
53368;DHT22;39271;45.618;20.024;2022-08-30T02:07:42;537.80;2406.40
53368;DHT22;39271;45.618;20.024;2022-08-30T02:10:08;537.70;2406.40
53368;DHT22;39271;45.618;20.024;2022-08-30T02:12:34;537.70;2406.40
53368;DHT22;39271;45.618;20.024;2022-08-30T02:14:59;537.80;2406.40
53368;DHT22;39271;45.618;20.024;2022-08-30T02:17:25;537.70;2406.40
53368;DHT22;39271;45.618;20.024;2022-08-30T06:26:05;614.50;2432.00
53368;DHT22;39271;45.618;20.024;2022-08-30T06:28:32;614.40;2432.00
53368;DHT22;39271;45.618;20.024;2022-08-30T06:30:57;614.50;2432.00
53368;DHT22;39271;45.618;20.024;2022-08-30T06:33:23;614.50;2432.00
53368;DHT22;39271;45.618;20.024;2022-08-30T06:35:48;614.50;2432.00
53368;DHT22;39271;45.618;20.024;2022-08-30T06:38:14;614.60;2432.00
53368;DHT22;39271;45.618;20.024;2022-08-30T06:40:40;614.60;2432.00
53368;DHT22;39271;45.618;20.024;2022-08-30T06:43:05;614.60;2432.00
53368;DHT22;39271;45.618;20.024;2022-08-30T06:45:32;614.70;2432.00
53368;DHT22;39271;45.618;20.024;2022-08-30T06:47:58;614.70;2432.00
53368;DHT22;39271;45.618;20.024;2022-08-30T06:50:23;614.80;2432.00
53368;DHT22;39271;45.618;20.024;2022-08-30T06:52:50;614.90;2432.00
53368;DHT22;39271;45.618;20.024;2022-08-30T06:55:16;615.00;2432.00
53368;DHT22;39271;45.618;20.024;2022-08-30T06:57:42;615.00;2432.00
53368;DHT22;39271;45.618;20.024;2022-08-30T07:00:08;615.10;2432.00
53368;DHT22;39271;45.618;20.024;2022-08-30T07:02:37;615.20;2432.00
53368;DHT22;39271;45.618;20.024;2022-08-30T07:05:03;615.30;2432.00
53368;DHT22;39271;45.618;20.024;2022-08-30T07:07:29;640.00;2432.00
53368;DHT22;39271;45.618;20.024;2022-08-30T07:09:55;615.30;2406.40
53368;DHT22;39271;45.618;20.024;2022-08-30T07:12:20;640.00;2432.00
53368;DHT22;39271;45.618;20.024;2022-08-30T07:14:46;640.10;2432.00
53368;DHT22;39271;45.618;20.024;2022-08-30T07:17:12;640.20;2406.40
53368;DHT22;39271;45.618;20.024;2022-08-30T07:19:58;640.20;2406.40
53368;DHT22;39271;45.618;20.024;2022-08-30T07:22:23;640.20;2406.40
53368;DHT22;39271;45.618;20.024;2022-08-30T07:24:49;640.30;2406.40
53368;DHT22;39271;45.618;20.024;2022-08-30T07:27:15;640.30;2380.80
53368;DHT22;39271;45.618;20.024;2022-08-30T07:29:40;640.30;2380.80
53368;DHT22;39271;45.618;20.024;2022-08-30T07:32:06;640.40;2380.80
53368;DHT22;39271;45.618;20.024;2022-08-30T07:34:32;640.30;2329.60
53368;DHT22;39271;45.618;20.024;2022-08-30T07:36:57;640.50;2355.20
53368;DHT22;39271;45.618;20.024;2022-08-30T07:39:23;640.60;2380.80
53368;DHT22;39271;45.618;20.024;2022-08-30T07:41:49;640.60;2329.60
53368;DHT22;39271;45.618;20.024;2022-08-30T07:44:15;640.80;2278.40
53368;DHT22;39271;45.618;20.024;2022-08-30T07:46:40;640.80;2304.00
53368;DHT22;39271;45.618;20.024;2022-08-30T07:49:08;640.80;2304.00
53368;DHT22;39271;45.618;20.024;2022-08-30T07:51:36;640.90;2278.40
53368;DHT22;39271;45.618;20.024;2022-08-30T07:54:02;665.60;2355.20
53368;DHT22;39271;45.618;20.024;2022-08-30T07:56:27;665.70;2278.40
53368;DHT22;39271;45.618;20.024;2022-08-30T07:58:53;665.70;2252.80
53368;DHT22;39271;45.618;20.024;2022-08-30T08:01:19;665.80;2227.20
53368;DHT22;39271;45.618;20.024;2022-08-30T08:03:45;665.90;2201.60
53368;DHT22;39271;45.618;20.024;2022-08-30T08:06:13;665.90;2201.60
53368;DHT22;39271;45.618;20.024;2022-08-30T08:08:39;666.00;2227.20
53368;DHT22;39271;45.618;20.024;2022-08-30T08:11:15;666.00;2201.60
53368;DHT22;39271;45.618;20.024;2022-08-30T08:13:41;666.10;2201.60
53368;DHT22;39271;45.618;20.024;2022-08-30T08:16:07;666.30;2176.00
53368;DHT22;39271;45.618;20.024;2022-08-30T08:18:33;666.40;2201.60
53368;DHT22;39271;45.618;20.024;2022-08-30T08:20:59;666.50;2201.60
53368;DHT22;39271;45.618;20.024;2022-08-30T08:23:24;666.50;2150.40
53368;DHT22;39271;45.618;20.024;2022-08-30T08:25:50;666.50;2124.80
53368;DHT22;39271;45.618;20.024;2022-08-30T08:28:16;691.30;2176.00
53368;DHT22;39271;45.618;20.024;2022-08-30T08:30:41;691.40;2048.00
53368;DHT22;39271;45.618;20.024;2022-08-30T08:33:07;691.40;2099.20
53368;DHT22;39271;45.618;20.024;2022-08-30T08:37:59;691.80;1996.80
53368;DHT22;39271;45.618;20.024;2022-08-30T08:40:25;691.60;2099.20
53368;DHT22;39271;45.618;20.024;2022-08-30T08:45:27;692.10;2099.20
53368;DHT22;39271;45.618;20.024;2022-08-30T09:39:29;717.50;1843.20
53368;DHT22;39271;45.618;20.024;2022-08-30T09:42:09;717.40;1792.00
53368;DHT22;39271;45.618;20.024;2022-08-30T09:44:37;717.50;1766.40
53368;DHT22;39271;45.618;20.024;2022-08-30T09:47:03;717.60;1817.60
53368;DHT22;39271;45.618;20.024;2022-08-30T09:54:45;717.40;1740.80
53368;DHT22;39271;45.618;20.024;2022-08-30T09:59:40;717.40;1766.40
53368;DHT22;39271;45.618;20.024;2022-08-30T10:04:59;717.40;1766.40
53368;DHT22;39271;45.618;20.024;2022-08-30T10:07:28;717.30;1740.80
53368;DHT22;39271;45.618;20.024;2022-08-30T10:12:29;717.20;1740.80
53368;DHT22;39271;45.618;20.024;2022-08-30T10:14:58;717.20;1817.60
53368;DHT22;39271;45.618;20.024;2022-08-30T10:17:36;717.20;1740.80
53368;DHT22;39271;45.618;20.024;2022-08-30T10:22:33;717.30;1740.80
53368;DHT22;39271;45.618;20.024;2022-08-30T10:25:05;717.40;1817.60
53368;DHT22;39271;45.618;20.024;2022-08-30T10:27:34;717.40;1740.80
53368;DHT22;39271;45.618;20.024;2022-08-30T10:37:40;717.50;1689.60
53368;DHT22;39271;45.618;20.024;2022-08-30T10:40:29;717.50;1689.60
53368;DHT22;39271;45.618;20.024;2022-08-30T10:43:22;717.70;1715.20
53368;DHT22;39271;45.618;20.024;2022-08-30T10:45:49;717.70;1689.60
53368;DHT22;39271;45.618;20.024;2022-08-30T10:48:37;717.70;1715.20
53368;DHT22;39271;45.618;20.024;2022-08-30T10:51:02;742.50;1740.80
53368;DHT22;39271;45.618;20.024;2022-08-30T10:53:50;742.50;1689.60
53368;DHT22;39271;45.618;20.024;2022-08-30T10:56:18;742.50;1689.60
53368;DHT22;39271;45.618;20.024;2022-08-30T10:58:45;717.70;1689.60
53368;DHT22;39271;45.618;20.024;2022-08-30T11:03:53;717.70;1740.80
53368;DHT22;39271;45.618;20.024;2022-08-30T11:09:15;717.70;1715.20
53368;DHT22;39271;45.618;20.024;2022-08-30T11:12:10;717.60;1715.20
53368;DHT22;39271;45.618;20.024;2022-08-30T11:14:37;717.60;1817.60
53368;DHT22;39271;45.618;20.024;2022-08-30T11:17:03;717.60;1843.20
53368;DHT22;39271;45.618;20.024;2022-08-30T11:19:36;717.50;1843.20
53368;DHT22;39271;45.618;20.024;2022-08-30T11:22:16;717.50;1894.40
53368;DHT22;39271;45.618;20.024;2022-08-30T11:25:07;717.40;1894.40
53368;DHT22;39271;45.618;20.024;2022-08-30T11:35:37;717.00;1920.00
53368;DHT22;39271;45.618;20.024;2022-08-30T11:38:16;716.90;1971.20
53368;DHT22;39271;45.618;20.024;2022-08-30T13:59:52;640.80;2432.00
53368;DHT22;39271;45.618;20.024;2022-08-30T14:02:17;640.70;2406.40
53368;DHT22;39271;45.618;20.024;2022-08-30T14:16:52;640.40;2432.00
53368;DHT22;39271;45.618;20.024;2022-08-30T14:58:15;665.60;2432.00
53368;DHT22;39271;45.618;20.024;2022-08-30T15:00:47;665.60;2432.00
53368;DHT22;39271;45.618;20.024;2022-08-30T15:05:39;666.20;2329.60
53368;DHT22;39271;45.618;20.024;2022-08-30T15:08:05;666.00;2329.60
53368;DHT22;39271;45.618;20.024;2022-08-30T15:10:31;666.00;2329.60
53368;DHT22;39271;45.618;20.024;2022-08-30T15:12:56;666.20;2355.20
53368;DHT22;39271;45.618;20.024;2022-08-30T15:15:22;666.50;2329.60
53368;DHT22;39271;45.618;20.024;2022-08-30T15:17:48;666.40;2304.00
53368;DHT22;39271;45.618;20.024;2022-08-30T15:20:14;666.50;2329.60
53368;DHT22;39271;45.618;20.024;2022-08-30T15:22:39;666.50;2380.80
53368;DHT22;39271;45.618;20.024;2022-08-30T15:25:05;691.30;2355.20
53368;DHT22;39271;45.618;20.024;2022-08-30T15:27:31;691.40;2252.80
53368;DHT22;39271;45.618;20.024;2022-08-30T15:39:49;716.90;2201.60
53368;DHT22;39271;45.618;20.024;2022-08-30T15:42:15;716.80;2150.40
53368;DHT22;39271;45.618;20.024;2022-08-30T17:36:47;666.10;2355.20
53368;DHT22;39271;45.618;20.024;2022-08-30T17:42:17;665.70;2432.00
53368;DHT22;39271;45.618;20.024;2022-08-30T18:33:34;640.50;2432.00
